Time;durP1;ratioP1;P1;durP2;ratioP2;P2;SDS_P1;SDS_P2;PMS_P1;PMS_P2;Temp;Humidity;BMP_temperature;BMP_pressure;BME280_temperature;BME280_humidity;BME280_pressure;Samples;Min_cycle;Max_cycle;Signal;HPM_P1;HPM_P2
2022/04/13 00:02:26;;;;;;;11.35;7.80;;;;;;;;;;5095854;22;20147;-85
2022/04/13 00:04:52;;;;;;;11.93;8.30;;;;;;;;;;5062324;28;20073;-85
2022/04/13 00:07:18;;;;;;;11.52;7.78;;;;;;;;;;5019692;28;20045;-85
2022/04/13 00:09:45;;;;;;;10.27;7.75;;;;;;;;;;5057164;28;20052;-86
2022/04/13 00:12:36;;;;;;;10.40;7.32;;;;;;;;;;5055116;28;20049;-86
2022/04/13 00:18:09;;;;;;;11.70;7.68;;;;;;;;;;5036060;28;20860;-85
2022/04/13 00:20:35;;;;;;;11.20;7.80;;;;;;;;;;5035917;28;20045;-84
2022/04/13 00:23:01;;;;;;;14.20;7.88;;;;;;;;;;5059034;28;20094;-85
2022/04/13 00:25:30;;;;;;;12.82;7.32;;;;;;;;;;5061915;28;20037;-84
2022/04/13 00:28:10;;;;;;;;;;;;;;;;;;;;;
2022/04/13 00:30:36;;;;;;;12.23;7.57;;;;;;;;;;5028209;28;20434;-84
2022/04/13 00:33:08;;;;;;;10.98;7.38;;;;;;;;;;5029566;28;20037;-86
2022/04/13 00:36:16;;;;;;;11.27;7.65;;;;;;;;;;5040861;28;20040;-83
2022/04/13 00:39:04;;;;;;;11.07;8.05;;;;;;;;;;5060623;28;20510;-84
2022/04/13 00:42:02;;;;;;;;;;;;;;;;;;;;;
2022/04/13 00:44:32;;;;;;;11.57;7.55;;;;;;;;;;5051114;28;20053;-85
2022/04/13 00:47:09;;;;;;;10.88;7.57;;;;;;;;;;5055780;28;20060;-85
2022/04/13 00:49:41;;;;;;;11.70;7.68;;;;;;;;;;5043437;28;20045;-84
2022/04/13 00:52:26;;;;;;;11.50;7.65;;;;;;;;;;5060254;28;20041;-84
2022/04/13 00:55:03;;;;;;;10.75;7.60;;;;;;;;;;5060442;28;20040;-86
2022/04/13 01:00:48;;;;;;;10.00;7.60;;;;;;;;;;5043874;28;20108;-86
2022/04/13 01:06:31;;;;;;;;;;;;;;;;;;;;;
2022/04/13 01:09:06;;;;;;;10.85;6.93;;;;;;;;;;5060142;28;20099;-84
2022/04/13 01:11:34;;;;;;;10.52;6.93;;;;;;;;;;5055866;28;20041;-85
2022/04/13 01:14:02;;;;;;;12.32;7.15;;;;;;;;;;5027251;28;20466;-86
2022/04/13 01:16:58;;;;;;;;;;;;;;;;;;;;;
2022/04/13 01:25:23;;;;;;;16.05;7.88;;;;;;;;;;5048127;28;20135;-84
2022/04/13 01:27:49;;;;;;;12.43;8.05;;;;;;;;;;5052120;28;20101;-84
2022/04/13 01:30:18;;;;;;;10.65;7.55;;;;;;;;;;5058921;28;20045;-85
2022/04/13 01:32:45;;;;;;;10.80;8.05;;;;;;;;;;5042452;28;20060;-84
2022/04/13 01:35:11;;;;;;;12.82;7.88;;;;;;;;;;5041293;28;20048;-86
2022/04/13 01:37:37;;;;;;;12.32;7.85;;;;;;;;;;5052611;28;20041;-85
2022/04/13 01:40:03;;;;;;;10.43;7.95;;;;;;;;;;5032227;28;20045;-85
2022/04/13 01:42:32;;;;;;;11.32;8.00;;;;;;;;;;5061487;28;20052;-85
2022/04/13 01:44:58;;;;;;;15.70;8.20;;;;;;;;;;5055491;28;20102;-85
2022/04/13 01:47:24;;;;;;;12.05;7.72;;;;;;;;;;5027873;28;20048;-85
2022/04/13 01:49:50;;;;;;;9.18;7.70;;;;;;;;;;5023543;28;20049;-85
2022/04/13 01:52:16;;;;;;;11.30;7.60;;;;;;;;;;5026036;28;20045;-85
2022/04/13 01:54:42;;;;;;;14.20;7.65;;;;;;;;;;5047749;28;20041;-85
2022/04/13 01:57:08;;;;;;;14.75;8.02;;;;;;;;;;5049338;28;20045;-85
2022/04/13 01:59:34;;;;;;;11.57;7.55;;;;;;;;;;5035652;28;20103;-84
2022/04/13 02:02:04;;;;;;;11.93;8.15;;;;;;;;;;5041226;28;20419;-85
2022/04/13 02:04:31;;;;;;;11.10;8.00;;;;;;;;;;5039544;28;20072;-85
2022/04/13 02:06:57;;;;;;;13.80;8.15;;;;;;;;;;5041112;28;20554;-84
2022/04/13 02:09:23;;;;;;;11.55;7.82;;;;;;;;;;5039627;28;20041;-84
2022/04/13 02:11:49;;;;;;;12.45;7.45;;;;;;;;;;5025101;28;20033;-85
2022/04/13 02:14:15;;;;;;;11.68;7.22;;;;;;;;;;5040643;28;20041;-85
2022/04/13 02:16:42;;;;;;;11.30;8.25;;;;;;;;;;5033588;28;20042;-84
2022/04/13 02:19:08;;;;;;;13.32;7.80;;;;;;;;;;5029511;28;20094;-85
2022/04/13 02:21:34;;;;;;;10.77;7.57;;;;;;;;;;5040651;28;20123;-85
2022/04/13 02:24:03;;;;;;;10.68;7.80;;;;;;;;;;5035070;28;20049;-85
2022/04/13 02:26:29;;;;;;;14.50;7.95;;;;;;;;;;5035281;28;20041;-84
2022/04/13 02:28:55;;;;;;;12.23;8.32;;;;;;;;;;5028414;28;20395;-85
2022/04/13 02:31:26;;;;;;;12.32;8.25;;;;;;;;;;5038708;28;20077;-82
2022/04/13 02:34:22;;;;;;;;;;;;;;;;;;;;;
2022/04/13 02:37:16;;;;;;;14.60;8.35;;;;;;;;;;5033007;28;20072;-85
2022/04/13 02:39:44;;;;;;;11.45;7.90;;;;;;;;;;5030793;28;20045;-86
2022/04/13 02:42:12;;;;;;;12.98;8.60;;;;;;;;;;5040280;28;20093;-85
2022/04/13 02:50:31;;;;;;;;;;;;;;;;;;;;;
2022/04/13 02:53:26;;;;;;;13.85;8.43;;;;;;;;;;5036405;28;20404;-85
2022/04/13 02:56:12;;;;;;;11.70;8.85;;;;;;;;;;5025769;28;20041;-83
2022/04/13 03:01:47;;;;;;;12.88;7.70;;;;;;;;;;5028275;28;20050;-85
2022/04/13 03:04:47;;;;;;;;;;;;;;;;;;;;;
2022/04/13 03:07:24;;;;;;;;;;;;;;;;;;;;;
2022/04/13 03:09:50;;;;;;;12.45;8.60;;;;;;;;;;5032602;28;20462;-85
2022/04/13 03:12:19;;;;;;;12.05;8.88;;;;;;;;;;5040537;28;20037;-84
2022/04/13 03:14:47;;;;;;;13.98;9.20;;;;;;;;;;5039390;28;20056;-84
2022/04/13 03:17:13;;;;;;;16.33;9.77;;;;;;;;;;5038062;28;20076;-86
2022/04/13 03:19:42;;;;;;;13.48;9.13;;;;;;;;;;5037329;28;20045;-84
2022/04/13 03:22:10;;;;;;;19.75;10.20;;;;;;;;;;5043871;28;20056;-84
2022/04/13 03:24:36;;;;;;;14.20;9.10;;;;;;;;;;5046436;28;20527;-84
2022/04/13 03:27:02;;;;;;;15.30;9.43;;;;;;;;;;5044754;28;20088;-84
2022/04/13 03:29:28;;;;;;;12.60;9.40;;;;;;;;;;5043891;28;20045;-84
2022/04/13 03:32:01;;;;;;;13.98;9.30;;;;;;;;;;5027107;28;20037;-84
2022/04/13 03:34:29;;;;;;;13.27;9.32;;;;;;;;;;5042724;28;20467;-84
2022/04/13 03:37:00;;;;;;;14.27;9.55;;;;;;;;;;5043732;28;20045;-86
2022/04/13 03:39:26;;;;;;;13.02;9.13;;;;;;;;;;5041542;28;20488;-84
2022/04/13 03:41:53;;;;;;;13.15;8.90;;;;;;;;;;5041149;28;20041;-85
2022/04/13 03:44:19;;;;;;;13.88;9.70;;;;;;;;;;5035413;28;20041;-85
2022/04/13 03:46:45;;;;;;;15.65;10.50;;;;;;;;;;5044034;28;20066;-85
2022/04/13 03:49:14;;;;;;;14.85;10.55;;;;;;;;;;5042862;28;20045;-85
2022/04/13 03:51:40;;;;;;;17.10;10.18;;;;;;;;;;5044140;28;20068;-85
2022/04/13 03:54:06;;;;;;;13.20;10.15;;;;;;;;;;5031124;28;20042;-86
2022/04/13 03:56:33;;;;;;;13.32;9.95;;;;;;;;;;5043942;28;20045;-85
2022/04/13 03:59:13;;;;;;;;;;;;;;;;;;;;;
2022/04/13 04:01:44;;;;;;;14.75;10.73;;;;;;;;;;5043757;28;20053;-85
2022/04/13 04:04:43;;;;;;;;;;;;;;;;;;;;;
2022/04/13 04:07:23;;;;;;;15.45;10.32;;;;;;;;;;5044725;28;20051;-85
2022/04/13 04:09:56;;;;;;;14.68;10.35;;;;;;;;;;5027979;28;20077;-84
2022/04/13 04:15:45;;;;;;;14.38;10.52;;;;;;;;;;5027301;28;20133;-87
2022/04/13 04:18:31;;;;;;;18.17;10.65;;;;;;;;;;5025004;28;20053;-86
2022/04/13 04:21:31;;;;;;;20.58;11.73;;;;;;;;;;5021315;28;20054;-85
2022/04/13 04:26:43;;;;;;;16.58;11.32;;;;;;;;;;5035752;28;20045;-84
2022/04/13 04:29:09;;;;;;;15.23;10.63;;;;;;;;;;5040267;28;20080;-86
2022/04/13 04:31:50;;;;;;;15.23;11.02;;;;;;;;;;5038171;28;20167;-84
2022/04/13 04:34:17;;;;;;;17.77;12.15;;;;;;;;;;5040786;28;20116;-85
2022/04/13 04:36:45;;;;;;;16.63;11.30;;;;;;;;;;5042664;28;20033;-86
2022/04/13 04:39:17;;;;;;;15.23;11.25;;;;;;;;;;5044175;28;20053;-85
2022/04/13 04:41:43;;;;;;;16.17;11.07;;;;;;;;;;5041393;28;20124;-86
2022/04/13 04:44:28;;;;;;;15.10;11.27;;;;;;;;;;5043235;28;20064;-85
2022/04/13 04:47:07;;;;;;;19.05;11.65;;;;;;;;;;5042821;28;20060;-85
2022/04/13 04:49:35;;;;;;;16.73;11.35;;;;;;;;;;5057964;28;20459;-86
2022/04/13 04:52:04;;;;;;;19.15;11.57;;;;;;;;;;5043344;28;20052;-85
2022/04/13 04:54:30;;;;;;;20.00;12.05;;;;;;;;;;5043950;28;20060;-85
2022/04/13 04:56:56;;;;;;;20.90;12.07;;;;;;;;;;5043195;28;20052;-85
2022/04/13 04:59:26;;;;;;;17.98;12.20;;;;;;;;;;5041956;28;20048;-85
2022/04/13 05:01:52;;;;;;;20.58;12.43;;;;;;;;;;5042987;28;20041;-85
2022/04/13 05:07:36;;;;;;;;;;;;;;;;;;;;;
2022/04/13 05:10:29;;;;;;;20.70;13.13;;;;;;;;;;5034870;28;20045;-84
2022/04/13 05:13:33;;;;;;;;;;;;;;;;;;;;;
2022/04/13 05:16:37;;;;;;;;;;;;;;;;;;;;;
2022/04/13 05:19:03;;;;;;;16.27;12.80;;;;;;;;;;5041027;28;20107;-84
2022/04/13 05:21:32;;;;;;;16.40;12.98;;;;;;;;;;5041600;28;20077;-85
2022/04/13 05:24:03;;;;;;;19.05;13.07;;;;;;;;;;5040061;28;20053;-86
2022/04/13 05:26:46;;;;;;;;;;;;;;;;;;5042645;28;20116;-87
2022/04/13 05:32:35;;;;;;;17.20;13.95;;;;;;;;;;5040238;28;20046;-85
2022/04/13 05:35:07;;;;;;;18.25;13.40;;;;;;;;;;5038871;28;20600;-84
2022/04/13 05:37:34;;;;;;;17.15;12.93;;;;;;;;;;5034828;28;20045;-83
2022/04/13 05:40:00;;;;;;;21.15;13.35;;;;;;;;;;5026241;28;20046;-86
2022/04/13 05:42:26;;;;;;;17.88;13.00;;;;;;;;;;5040916;28;20088;-85
2022/04/13 05:44:58;;;;;;;19.58;12.77;;;;;;;;;;5040826;28;20049;-85
2022/04/13 05:47:24;;;;;;;16.27;12.45;;;;;;;;;;5042128;28;20071;-85
2022/04/13 05:49:50;;;;;;;18.13;12.90;;;;;;;;;;5041839;28;20056;-84
2022/04/13 05:52:16;;;;;;;19.80;13.20;;;;;;;;;;5041410;28;20049;-85
2022/04/13 05:54:42;;;;;;;18.27;12.57;;;;;;;;;;5040900;28;21729;-84
2022/04/13 05:57:12;;;;;;;17.85;12.45;;;;;;;;;;5022083;28;20388;-84
2022/04/13 06:00:04;;;;;;;18.92;13.88;;;;;;;;;;5040592;28;20095;-85
2022/04/13 06:02:55;;;;;;;18.70;11.68;;;;;;;;;;5039631;28;20069;-85
2022/04/13 06:05:22;;;;;;;17.02;12.40;;;;;;;;;;5029843;28;20554;-85
2022/04/13 06:07:48;;;;;;;17.23;11.30;;;;;;;;;;5040439;28;20049;-84
2022/04/13 06:10:19;;;;;;;17.55;12.35;;;;;;;;;;5042669;28;20047;-85
2022/04/13 06:20:35;;;;;;;19.27;12.68;;;;;;;;;;1945572;22;20052;-84
2022/04/13 06:23:03;;;;;;;19.65;12.40;;;;;;;;;;5068939;28;20053;-86
2022/04/13 06:30:58;;;;;;;18.45;13.13;;;;;;;;;;1107141;22;20395;-85
2022/04/13 06:33:32;;;;;;;20.58;14.23;;;;;;;;;;5053307;28;20048;-86
2022/04/13 06:36:00;;;;;;;21.90;14.65;;;;;;;;;;5051472;28;20121;-85
2022/04/13 06:38:43;;;;;;;;;;;;;;;;;;;;;
2022/04/13 06:41:18;;;;;;;22.80;14.90;;;;;;;;;;5061066;28;20071;-86
2022/04/13 06:43:44;;;;;;;20.15;14.50;;;;;;;;;;5058642;28;20041;-85
2022/04/13 06:46:10;;;;;;;19.23;12.75;;;;;;;;;;5042549;28;20105;-85
2022/04/13 06:48:41;;;;;;;17.92;13.27;;;;;;;;;;5050526;28;20351;-84
2022/04/13 06:51:10;;;;;;;20.42;14.25;;;;;;;;;;5065194;28;20522;-85
2022/04/13 06:53:38;;;;;;;20.20;14.02;;;;;;;;;;5063546;28;20071;-85
2022/04/13 06:56:07;;;;;;;20.15;13.95;;;;;;;;;;5061948;28;20036;-84
2022/04/13 06:58:33;;;;;;;19.52;13.65;;;;;;;;;;5063524;28;20131;-84
2022/04/13 07:00:59;;;;;;;18.90;14.07;;;;;;;;;;5064114;28;20044;-84
2022/04/13 07:03:26;;;;;;;20.88;13.80;;;;;;;;;;5054518;28;20072;-83
2022/04/13 07:05:52;;;;;;;22.23;13.65;;;;;;;;;;5062303;28;20109;-84
2022/04/13 07:08:18;;;;;;;24.15;13.40;;;;;;;;;;5061280;28;20043;-84
2022/04/13 07:10:44;;;;;;;22.10;13.68;;;;;;;;;;5063966;28;20068;-83
2022/04/13 07:13:14;;;;;;;17.13;11.98;;;;;;;;;;5063709;28;20120;-85
2022/04/13 07:15:40;;;;;;;20.20;11.93;;;;;;;;;;5064574;28;20048;-85
2022/04/13 07:18:07;;;;;;;16.13;11.23;;;;;;;;;;5062490;28;20068;-85
2022/04/13 07:20:33;;;;;;;17.75;11.43;;;;;;;;;;5065032;28;20041;-84
2022/04/13 07:22:59;;;;;;;20.25;10.88;;;;;;;;;;5062979;28;20102;-84
2022/04/13 07:25:25;;;;;;;16.95;10.13;;;;;;;;;;5065425;28;20048;-84
2022/04/13 07:27:51;;;;;;;15.50;10.25;;;;;;;;;;5064756;28;20052;-83
2022/04/13 07:30:17;;;;;;;15.88;9.65;;;;;;;;;;5059979;28;20064;-84
2022/04/13 07:32:45;;;;;;;13.63;9.00;;;;;;;;;;5043617;28;20049;-84
2022/04/13 07:35:11;;;;;;;17.75;8.25;;;;;;;;;;5043269;28;20056;-84
2022/04/13 07:37:39;;;;;;;14.43;8.27;;;;;;;;;;5045600;28;20049;-83
2022/04/13 07:40:06;;;;;;;15.07;8.20;;;;;;;;;;5043246;28;20049;-84
2022/04/13 07:42:32;;;;;;;13.70;8.40;;;;;;;;;;5049332;28;20045;-84
2022/04/13 07:44:58;;;;;;;15.35;8.10;;;;;;;;;;5040369;28;20041;-85
2022/04/13 07:47:24;;;;;;;15.18;9.10;;;;;;;;;;5041355;28;20073;-85
2022/04/13 07:49:50;;;;;;;15.13;9.35;;;;;;;;;;5044419;28;20042;-85
2022/04/13 07:52:17;;;;;;;12.68;7.20;;;;;;;;;;5049190;28;20045;-85
2022/04/13 07:54:46;;;;;;;11.73;7.20;;;;;;;;;;5061598;28;20041;-85
2022/04/13 07:57:12;;;;;;;11.95;6.80;;;;;;;;;;5055130;28;20038;-84
2022/04/13 07:59:38;;;;;;;12.32;7.20;;;;;;;;;;5056853;28;20056;-84
2022/04/13 08:02:04;;;;;;;13.77;7.07;;;;;;;;;;5047499;28;20045;-84
2022/04/13 08:04:37;;;;;;;15.45;8.73;;;;;;;;;;5043495;28;20045;-84
2022/04/13 08:07:03;;;;;;;15.50;8.30;;;;;;;;;;5050072;28;20053;-85
2022/04/13 08:09:34;;;;;;;12.70;8.15;;;;;;;;;;5049784;28;20048;-83
2022/04/13 08:12:01;;;;;;;15.15;8.50;;;;;;;;;;5043207;28;20049;-84
2022/04/13 08:14:27;;;;;;;12.18;8.20;;;;;;;;;;5044333;28;20084;-84
2022/04/13 08:16:53;;;;;;;12.30;8.10;;;;;;;;;;5048725;28;20045;-84
2022/04/13 08:19:19;;;;;;;13.75;8.43;;;;;;;;;;5054870;28;20068;-84
2022/04/13 08:21:45;;;;;;;14.40;8.25;;;;;;;;;;5045834;28;20517;-84
2022/04/13 08:24:13;;;;;;;15.27;8.88;;;;;;;;;;5049917;28;20041;-84
2022/04/13 08:26:39;;;;;;;14.55;8.65;;;;;;;;;;5063823;28;20101;-86
2022/04/13 08:29:05;;;;;;;14.88;8.60;;;;;;;;;;5065657;28;20048;-84
2022/04/13 08:31:31;;;;;;;15.32;8.75;;;;;;;;;;5051250;28;20069;-85
2022/04/13 08:33:57;;;;;;;13.27;8.63;;;;;;;;;;5041387;28;20056;-84
2022/04/13 08:36:23;;;;;;;16.55;8.75;;;;;;;;;;5038294;28;20046;-84
2022/04/13 08:38:49;;;;;;;15.23;8.63;;;;;;;;;;5041126;28;20041;-83
2022/04/13 08:41:24;;;;;;;13.55;8.85;;;;;;;;;;5038840;28;20057;-83
2022/04/13 08:43:59;;;;;;;16.45;9.48;;;;;;;;;;5043508;28;20046;-84
2022/04/13 08:46:26;;;;;;;14.38;8.75;;;;;;;;;;5050961;28;20041;-84
2022/04/13 08:48:58;;;;;;;14.43;8.13;;;;;;;;;;5043622;28;20045;-83
2022/04/13 08:51:27;;;;;;;13.65;8.10;;;;;;;;;;5045166;28;20048;-83
2022/04/13 08:54:14;;;;;;;12.95;7.95;;;;;;;;;;5040878;28;20042;-84
2022/04/13 08:56:44;;;;;;;16.35;9.45;;;;;;;;;;5026120;28;20446;-84
2022/04/13 08:59:10;;;;;;;13.82;8.60;;;;;;;;;;5045309;28;20045;-84
2022/04/13 09:01:56;;;;;;;13.63;7.85;;;;;;;;;;5051814;28;20091;-84
2022/04/13 09:04:24;;;;;;;15.95;7.75;;;;;;;;;;5064692;28;20049;-85
2022/04/13 09:06:50;;;;;;;14.45;8.00;;;;;;;;;;5063324;28;20045;-84
2022/04/13 09:09:20;;;;;;;15.95;8.88;;;;;;;;;;5056281;28;20053;-85
2022/04/13 09:11:47;;;;;;;14.82;8.77;;;;;;;;;;5043288;28;20048;-84
2022/04/13 09:14:13;;;;;;;15.70;9.00;;;;;;;;;;5041002;28;20483;-84
2022/04/13 09:16:40;;;;;;;14.85;7.82;;;;;;;;;;5042898;28;20041;-84
2022/04/13 09:19:06;;;;;;;13.80;7.65;;;;;;;;;;5041025;28;20082;-84
2022/04/13 09:21:33;;;;;;;10.70;7.07;;;;;;;;;;5058267;28;20486;-85
2022/04/13 09:24:00;;;;;;;13.05;7.45;;;;;;;;;;5056592;28;20045;-83
2022/04/13 09:26:26;;;;;;;15.60;8.82;;;;;;;;;;5038985;28;20113;-84
2022/04/13 09:28:52;;;;;;;13.73;8.05;;;;;;;;;;5042332;28;20045;-84
2022/04/13 09:31:22;;;;;;;17.73;9.15;;;;;;;;;;5023414;28;20045;-85
2022/04/13 09:33:49;;;;;;;15.20;9.43;;;;;;;;;;5042681;28;20483;-85
2022/04/13 09:36:16;;;;;;;16.05;9.10;;;;;;;;;;5036264;28;20049;-85
2022/04/13 09:38:43;;;;;;;13.38;8.45;;;;;;;;;;5030979;28;20072;-84
2022/04/13 09:41:10;;;;;;;15.75;8.80;;;;;;;;;;5042210;28;20038;-85
2022/04/13 09:43:38;;;;;;;14.50;8.35;;;;;;;;;;5041213;28;20041;-84
2022/04/13 09:46:04;;;;;;;14.73;9.10;;;;;;;;;;5010250;28;20050;-84
2022/04/13 09:48:31;;;;;;;17.83;9.23;;;;;;;;;;5041843;28;20106;-84
2022/04/13 09:50:57;;;;;;;13.95;9.05;;;;;;;;;;5041320;28;20049;-84
2022/04/13 09:53:24;;;;;;;17.83;10.27;;;;;;;;;;5063857;28;20052;-83
2022/04/13 09:55:59;;;;;;;14.45;10.00;;;;;;;;;;5041629;28;20127;-85
2022/04/13 09:58:26;;;;;;;15.55;9.85;;;;;;;;;;5050851;28;20101;-86
2022/04/13 10:01:02;;;;;;;16.30;9.65;;;;;;;;;;5042157;28;20037;-85
2022/04/13 10:03:41;;;;;;;;;;;;;;;;;;;;;
2022/04/13 10:06:07;;;;;;;14.32;9.52;;;;;;;;;;5025284;28;20100;-83
2022/04/13 10:08:34;;;;;;;14.98;9.07;;;;;;;;;;5024594;28;20043;-82
2022/04/13 10:11:00;;;;;;;18.00;9.52;;;;;;;;;;5036536;28;20125;-85
2022/04/13 10:13:32;;;;;;;17.30;9.23;;;;;;;;;;5038442;28;20054;-84
2022/04/13 10:16:00;;;;;;;12.23;7.50;;;;;;;;;;5040442;28;20514;-83
2022/04/13 10:18:27;;;;;;;14.32;7.20;;;;;;;;;;5040615;28;20061;-85
2022/04/13 10:20:53;;;;;;;13.70;7.57;;;;;;;;;;5040301;28;20092;-84
2022/04/13 10:23:20;;;;;;;11.60;6.78;;;;;;;;;;5039068;28;20049;-85
2022/04/13 10:25:46;;;;;;;12.30;6.82;;;;;;;;;;5044973;28;20075;-84
2022/04/13 10:28:12;;;;;;;11.43;6.28;;;;;;;;;;5043961;28;20041;-83
2022/04/13 10:30:42;;;;;;;14.45;6.65;;;;;;;;;;5051276;28;20045;-84
2022/04/13 10:33:12;;;;;;;13.50;6.38;;;;;;;;;;5043687;28;20041;-84
2022/04/13 10:35:45;;;;;;;9.68;5.97;;;;;;;;;;5044570;28;20119;-85
2022/04/13 10:38:14;;;;;;;11.30;6.07;;;;;;;;;;5032155;28;20069;-83
2022/04/13 10:40:43;;;;;;;11.75;5.68;;;;;;;;;;5052821;28;20044;-84
2022/04/13 10:43:11;;;;;;;11.52;5.50;;;;;;;;;;5041165;28;20388;-84
2022/04/13 10:45:39;;;;;;;12.25;5.85;;;;;;;;;;5041546;28;20045;-84
2022/04/13 10:48:06;;;;;;;12.23;5.95;;;;;;;;;;5037796;28;20469;-85
2022/04/13 10:50:32;;;;;;;12.15;5.43;;;;;;;;;;5043639;28;20045;-83
2022/04/13 10:53:11;;;;;;;10.93;5.47;;;;;;;;;;5043786;28;20046;-84
2022/04/13 10:55:37;;;;;;;10.73;5.95;;;;;;;;;;5045224;28;20044;-85
2022/04/13 10:58:03;;;;;;;12.20;4.95;;;;;;;;;;5044498;28;20044;-84
2022/04/13 11:00:31;;;;;;;10.02;4.70;;;;;;;;;;5043524;28;20037;-84
2022/04/13 11:03:02;;;;;;;11.95;5.60;;;;;;;;;;5042986;28;20120;-84
2022/04/13 11:05:29;;;;;;;10.95;5.00;;;;;;;;;;5042552;28;20042;-83
2022/04/13 11:08:00;;;;;;;10.25;5.40;;;;;;;;;;5041815;28;20042;-84
2022/04/13 11:10:28;;;;;;;10.13;4.50;;;;;;;;;;5042221;28;20422;-84
2022/04/13 11:12:54;;;;;;;11.05;4.32;;;;;;;;;;5043286;28;20048;-83
2022/04/13 11:15:37;;;;;;;11.85;5.32;;;;;;;;;;5041279;28;20053;-83
2022/04/13 11:18:08;;;;;;;8.93;4.50;;;;;;;;;;5043351;28;20045;-84
2022/04/13 11:20:34;;;;;;;11.23;4.80;;;;;;;;;;5047441;28;20045;-83
2022/04/13 11:23:13;;;;;;;12.95;5.03;;;;;;;;;;5041567;28;20089;-82
2022/04/13 11:26:01;;;;;;;10.10;4.70;;;;;;;;;;5043210;28;20041;-84
2022/04/13 11:28:35;;;;;;;12.05;5.05;;;;;;;;;;5038030;28;20041;-84
2022/04/13 11:31:10;;;;;;;11.38;4.95;;;;;;;;;;5046537;28;20048;-84
2022/04/13 11:33:48;;;;;;;10.60;4.07;;;;;;;;;;5039019;28;20045;-81
2022/04/13 11:36:15;;;;;;;9.25;4.32;;;;;;;;;;5027650;28;20042;-83
2022/04/13 11:38:56;;;;;;;10.55;4.15;;;;;;;;;;5041350;28;20045;-84
2022/04/13 11:41:22;;;;;;;9.82;4.20;;;;;;;;;;5041630;28;20045;-83
2022/04/13 11:43:49;;;;;;;9.63;3.40;;;;;;;;;;5021733;28;20042;-83
2022/04/13 11:46:39;;;;;;;8.73;3.20;;;;;;;;;;5038292;28;20041;-85
2022/04/13 11:49:09;;;;;;;7.47;2.90;;;;;;;;;;5040992;28;20727;-85
2022/04/13 11:51:36;;;;;;;7.45;3.80;;;;;;;;;;5041736;28;20048;-84
2022/04/13 11:54:09;;;;;;;6.32;2.65;;;;;;;;;;5041528;28;20061;-83
2022/04/13 11:56:54;;;;;;;7.38;2.72;;;;;;;;;;5045842;28;20068;-84
2022/04/13 11:59:52;;;;;;;8.10;2.63;;;;;;;;;;5051635;28;20048;-83
2022/04/13 12:02:21;;;;;;;9.13;3.10;;;;;;;;;;5009413;28;20053;-84
2022/04/13 12:04:48;;;;;;;6.82;2.70;;;;;;;;;;5043068;28;20492;-85
2022/04/13 12:07:14;;;;;;;7.72;2.80;;;;;;;;;;5039400;28;20049;-85
2022/04/13 12:09:41;;;;;;;8.95;3.40;;;;;;;;;;5032558;28;20038;-85
2022/04/13 12:12:13;;;;;;;9.30;3.70;;;;;;;;;;5051610;28;20033;-84
2022/04/13 12:14:40;;;;;;;8.02;3.60;;;;;;;;;;5032794;28;20372;-84
2022/04/13 12:17:06;;;;;;;12.75;4.38;;;;;;;;;;5042696;28;20083;-84
2022/04/13 12:19:41;;;;;;;10.05;5.03;;;;;;;;;;5038957;28;20117;-85
2022/04/13 12:22:16;;;;;;;8.77;4.93;;;;;;;;;;5042403;28;20052;-85
2022/04/13 12:25:01;;;;;;;9.75;4.75;;;;;;;;;;5015340;28;20060;-85
2022/04/13 12:27:27;;;;;;;8.85;4.82;;;;;;;;;;5055630;28;20049;-85
2022/04/13 12:30:08;;;;;;;9.82;5.03;;;;;;;;;;5040615;28;20129;-84
2022/04/13 12:32:34;;;;;;;;;;;;;;;;;;5025207;28;20054;-84
2022/04/13 12:35:00;;;;;;;7.93;2.90;;;;;;;;;;5035412;28;19921;-85
2022/04/13 12:37:34;;;;;;;6.82;2.97;;;;;;;;;;5024620;28;20038;-85
2022/04/13 12:40:20;;;;;;;7.60;2.92;;;;;;;;;;5025824;28;20037;-85
2022/04/13 12:42:46;;;;;;;9.10;2.70;;;;;;;;;;5024034;28;20046;-84
2022/04/13 12:45:12;;;;;;;7.70;2.70;;;;;;;;;;5037443;28;20499;-85
2022/04/13 12:47:48;;;;;;;8.85;2.95;;;;;;;;;;5036157;28;20069;-84
2022/04/13 12:50:15;;;;;;;9.55;3.38;;;;;;;;;;5025131;28;20041;-83
2022/04/13 12:52:44;;;;;;;9.23;3.22;;;;;;;;;;5007372;28;20117;-85
2022/04/13 12:55:10;;;;;;;9.13;2.97;;;;;;;;;;5014895;28;20116;-84
2022/04/13 12:57:36;;;;;;;7.68;3.33;;;;;;;;;;5049482;28;20069;-84
2022/04/13 13:00:05;;;;;;;9.27;3.25;;;;;;;;;;5037640;28;20483;-84
2022/04/13 13:02:31;;;;;;;9.38;3.03;;;;;;;;;;5024771;28;20088;-83
2022/04/13 13:05:03;;;;;;;8.32;3.10;;;;;;;;;;5029141;28;20049;-82
2022/04/13 13:07:30;;;;;;;8.05;3.03;;;;;;;;;;5024186;28;20054;-84
2022/04/13 13:09:56;;;;;;;9.52;2.80;;;;;;;;;;5047407;28;20041;-84
2022/04/13 13:12:25;;;;;;;9.70;2.65;;;;;;;;;;5021877;28;20045;-84
2022/04/13 13:14:54;;;;;;;8.15;3.15;;;;;;;;;;5014819;28;20072;-84
2022/04/13 13:17:21;;;;;;;9.27;2.60;;;;;;;;;;5030735;28;20098;-84
2022/04/13 13:19:48;;;;;;;10.50;2.35;;;;;;;;;;5024327;28;20100;-85
2022/04/13 13:22:19;;;;;;;7.68;1.90;;;;;;;;;;5040649;28;20046;-85
2022/04/13 13:24:47;;;;;;;5.97;1.52;;;;;;;;;;5042008;28;20076;-85
2022/04/13 13:27:14;;;;;;;6.30;1.65;;;;;;;;;;5016609;28;20053;-84
2022/04/13 13:29:44;;;;;;;7.25;1.80;;;;;;;;;;5022484;28;20416;-83
2022/04/13 13:32:14;;;;;;;7.05;2.03;;;;;;;;;;5041274;28;20046;-84
2022/04/13 13:34:48;;;;;;;6.43;1.25;;;;;;;;;;5036999;28;20045;-84
2022/04/13 13:37:27;;;;;;;7.03;1.20;;;;;;;;;;5039226;28;20045;-84
2022/04/13 13:39:53;;;;;;;5.97;1.42;;;;;;;;;;5022272;28;20060;-85
2022/04/13 13:42:19;;;;;;;8.40;1.70;;;;;;;;;;5040799;28;20045;-85
2022/04/13 13:44:45;;;;;;;9.45;2.28;;;;;;;;;;5026021;28;20128;-84
2022/04/13 13:47:11;;;;;;;10.07;2.55;;;;;;;;;;5044080;28;20045;-84
2022/04/13 13:49:37;;;;;;;10.93;2.53;;;;;;;;;;5039885;28;20446;-84
2022/04/13 13:52:04;;;;;;;8.65;2.50;;;;;;;;;;5040000;28;20037;-84
2022/04/13 13:54:32;;;;;;;8.55;2.63;;;;;;;;;;5005287;28;20041;-84
2022/04/13 13:57:01;;;;;;;9.63;2.63;;;;;;;;;;5038863;28;20056;-83
2022/04/13 13:59:27;;;;;;;8.80;2.50;;;;;;;;;;5047777;28;20113;-84
2022/04/13 14:01:53;;;;;;;7.43;2.00;;;;;;;;;;5049561;28;20081;-83
2022/04/13 14:04:21;;;;;;;11.77;2.03;;;;;;;;;;5029125;28;20041;-83
2022/04/13 14:06:47;;;;;;;9.05;2.03;;;;;;;;;;5043546;28;20060;-83
2022/04/13 14:09:13;;;;;;;6.65;1.50;;;;;;;;;;5044143;28;20042;-84
2022/04/13 14:11:39;;;;;;;7.93;1.73;;;;;;;;;;5040988;28;20485;-84
2022/04/13 14:14:05;;;;;;;5.60;1.17;;;;;;;;;;5046056;28;20391;-85
2022/04/13 14:16:31;;;;;;;6.68;1.48;;;;;;;;;;5051674;28;20076;-84
2022/04/13 14:18:58;;;;;;;7.13;1.30;;;;;;;;;;5046572;28;20045;-84
2022/04/13 14:21:25;;;;;;;8.95;1.20;;;;;;;;;;5042422;28;20076;-84
2022/04/13 14:23:51;;;;;;;6.28;1.20;;;;;;;;;;5041045;28;20049;-84
2022/04/13 14:26:17;;;;;;;7.97;1.50;;;;;;;;;;5040356;28;20060;-84
2022/04/13 14:28:45;;;;;;;7.30;1.20;;;;;;;;;;5041611;28;20093;-83
2022/04/13 14:31:11;;;;;;;8.55;1.70;;;;;;;;;;5041114;28;20049;-83
2022/04/13 14:33:37;;;;;;;7.70;1.45;;;;;;;;;;5041856;28;20046;-84
2022/04/13 14:36:03;;;;;;;6.30;1.40;;;;;;;;;;5044243;28;20042;-84
2022/04/13 14:38:31;;;;;;;8.90;2.03;;;;;;;;;;5018487;28;20509;-84
2022/04/13 14:40:57;;;;;;;11.77;2.28;;;;;;;;;;5022864;28;20081;-84
2022/04/13 14:43:23;;;;;;;10.25;2.40;;;;;;;;;;5026105;28;20052;-84
2022/04/13 14:45:50;;;;;;;8.93;2.17;;;;;;;;;;5043870;28;20053;-84
2022/04/13 14:48:16;;;;;;;9.40;2.50;;;;;;;;;;5039951;28;20045;-84
2022/04/13 14:50:42;;;;;;;12.43;2.47;;;;;;;;;;5040307;28;20041;-84
2022/04/13 14:53:10;;;;;;;11.93;2.78;;;;;;;;;;5024342;28;20112;-83
2022/04/13 14:55:36;;;;;;;8.45;2.13;;;;;;;;;;5047830;28;20061;-84
2022/04/13 14:58:03;;;;;;;6.97;1.52;;;;;;;;;;5050172;28;20045;-83
2022/04/13 15:00:29;;;;;;;7.65;1.90;;;;;;;;;;5040521;28;20069;-84
2022/04/13 15:02:55;;;;;;;6.20;1.80;;;;;;;;;;5023002;28;20048;-83
2022/04/13 15:05:21;;;;;;;10.73;1.92;;;;;;;;;;5040851;28;20048;-84
2022/04/13 15:07:47;;;;;;;11.60;2.30;;;;;;;;;;5042231;28;20052;-85
2022/04/13 15:10:13;;;;;;;9.70;2.40;;;;;;;;;;5025050;28;20054;-84
2022/04/13 15:12:40;;;;;;;11.35;2.58;;;;;;;;;;5030463;28;20049;-84
2022/04/13 15:15:08;;;;;;;9.88;2.38;;;;;;;;;;5044212;28;20052;-85
2022/04/13 15:17:34;;;;;;;9.43;2.08;;;;;;;;;;5042360;28;20037;-83
2022/04/13 15:20:00;;;;;;;9.20;2.33;;;;;;;;;;5042995;28;20045;-85
2022/04/13 15:22:27;;;;;;;8.43;2.33;;;;;;;;;;5045096;28;20510;-85
2022/04/13 15:24:53;;;;;;;9.55;2.38;;;;;;;;;;5045180;28;20046;-84
2022/04/13 15:27:19;;;;;;;10.57;2.55;;;;;;;;;;5044266;28;20038;-84
2022/04/13 15:29:45;;;;;;;8.63;2.42;;;;;;;;;;5026809;28;20525;-83
2022/04/13 15:32:11;;;;;;;8.90;2.50;;;;;;;;;;5045220;28;20061;-84
2022/04/13 15:34:37;;;;;;;8.25;2.33;;;;;;;;;;5028538;28;20053;-84
2022/04/13 15:37:04;;;;;;;10.05;2.10;;;;;;;;;;5057291;28;20049;-85
2022/04/13 15:39:30;;;;;;;8.52;2.13;;;;;;;;;;5041264;28;20041;-85
2022/04/13 15:41:56;;;;;;;8.10;2.10;;;;;;;;;;5026521;28;20053;-84
2022/04/13 15:44:22;;;;;;;9.15;2.17;;;;;;;;;;5038717;28;20075;-84
2022/04/13 15:46:48;;;;;;;9.55;1.95;;;;;;;;;;5043483;28;20052;-85
2022/04/13 15:49:14;;;;;;;7.82;2.13;;;;;;;;;;5044837;28;20482;-84
2022/04/13 15:51:42;;;;;;;7.50;1.73;;;;;;;;;;5046975;28;20045;-84
2022/04/13 15:54:08;;;;;;;6.53;2.15;;;;;;;;;;5055122;28;20056;-84